createdAt,value
2023-05-05T00:02:23.952Z,4.20
2023-05-05T00:05:25.610Z,4.70
2023-05-05T00:08:28.458Z,4.63
2023-05-05T00:11:30.029Z,5.05
2023-05-05T00:14:31.564Z,5.03
2023-05-05T00:17:33.097Z,4.90
2023-05-05T00:20:34.647Z,5.05
2023-05-05T00:23:36.186Z,4.53
2023-05-05T00:26:37.715Z,5.00
2023-05-05T00:29:39.290Z,5.30
2023-05-05T00:32:41.144Z,4.50
2023-05-05T00:35:42.821Z,4.30
2023-05-05T00:38:44.412Z,4.93
2023-05-05T00:41:46.001Z,4.97
2023-05-05T00:44:47.671Z,4.82
2023-05-05T00:47:52.345Z,4.72
2023-05-05T00:50:54.117Z,4.60
2023-05-05T00:53:55.875Z,4.50
2023-05-05T00:56:57.570Z,5.20
2023-05-05T00:59:59.919Z,5.45
2023-05-05T01:03:01.656Z,4.97
2023-05-05T01:06:19.016Z,5.68
2023-05-05T01:09:28.221Z,4.65
2023-05-05T01:12:35.221Z,5.38
2023-05-05T01:15:48.102Z,5.47
2023-05-05T01:19:04.233Z,4.95
2023-05-05T01:22:08.841Z,4.97
2023-05-05T01:25:48.972Z,4.88
2023-05-05T01:29:02.702Z,4.75
2023-05-05T01:32:09.613Z,4.53
2023-05-05T01:35:18.139Z,4.97
2023-05-05T01:38:23.198Z,4.78
2023-05-05T01:41:33.325Z,4.90
2023-05-05T01:44:36.897Z,4.97
2023-05-05T01:47:40.609Z,5.35
2023-05-05T01:50:43.726Z,4.25
2023-05-05T01:56:49.394Z,4.32
2023-05-05T01:59:52.529Z,4.70
2023-05-05T02:02:59.754Z,4.65
2023-05-05T02:06:02.762Z,5.18
2023-05-05T02:09:05.136Z,5.95
2023-05-05T02:12:08.271Z,5.43
2023-05-05T02:15:11.336Z,5.15
2023-05-05T02:18:14.349Z,4.47
2023-05-05T02:21:18.002Z,5.30
2023-05-05T02:24:19.816Z,5.47
2023-05-05T02:27:24.278Z,5.50
2023-05-05T02:30:29.769Z,5.97
2023-05-05T02:33:33.923Z,6.45
2023-05-05T02:36:39.238Z,4.85
2023-05-05T02:40:10.939Z,5.32
2023-05-05T02:43:21.377Z,5.13
2023-05-05T02:46:23.377Z,4.97
2023-05-05T02:49:25.063Z,5.60
2023-05-05T02:52:33.021Z,5.35
2023-05-05T02:55:43.367Z,5.40
2023-05-05T02:58:54.186Z,5.43
2023-05-05T03:02:08.133Z,5.68
2023-05-05T03:05:21.705Z,4.57
2023-05-05T03:08:30.159Z,5.28
2023-05-05T03:11:43.970Z,4.93
2023-05-05T03:14:46.979Z,5.15
2023-05-05T03:17:53.101Z,5.10
2023-05-05T03:20:55.665Z,4.68
2023-05-05T03:23:58.436Z,4.40
2023-05-05T03:27:00.006Z,4.90
2023-05-05T03:30:08.258Z,5.20
2023-05-05T03:33:16.130Z,5.55
2023-05-05T03:36:17.719Z,6.00
2023-05-05T03:39:19.761Z,5.10
2023-05-05T03:42:22.290Z,5.13
2023-05-05T03:45:24.240Z,5.18
2023-05-05T03:48:26.028Z,5.13
2023-05-05T03:51:28.026Z,5.32
2023-05-05T03:54:29.893Z,5.57
2023-05-05T03:57:31.451Z,5.25
2023-05-05T04:00:33.444Z,5.57
2023-05-05T04:03:35.529Z,5.95
2023-05-05T04:06:37.196Z,6.00
2023-05-05T04:09:44.557Z,5.97
2023-05-05T04:12:46.926Z,5.45
2023-05-05T04:15:48.651Z,5.15
2023-05-05T04:18:52.015Z,5.30
2023-05-05T04:21:53.630Z,5.95
2023-05-05T04:24:55.290Z,5.72
2023-05-05T04:27:57.395Z,6.03
2023-05-05T04:31:01.122Z,7.22
2023-05-05T04:34:04.996Z,7.80
2023-05-05T04:37:06.869Z,7.25
2023-05-05T04:40:09.837Z,5.78
2023-05-05T04:43:12.759Z,5.82
2023-05-05T04:46:15.148Z,5.95
2023-05-05T04:49:16.944Z,5.68
2023-05-05T04:52:18.664Z,5.90
2023-05-05T04:55:20.320Z,5.60
2023-05-05T04:58:21.929Z,5.95
2023-05-05T05:01:23.624Z,6.00
2023-05-05T05:04:27.063Z,7.00
2023-05-05T05:07:28.651Z,6.28
2023-05-05T05:10:30.326Z,5.90
2023-05-05T05:13:32.400Z,5.38
2023-05-05T05:16:34.040Z,6.28
2023-05-05T05:19:35.841Z,6.53
2023-05-05T05:22:38.962Z,5.80
2023-05-05T05:25:44.189Z,5.63
2023-05-05T05:28:47.004Z,5.78
2023-05-05T05:31:50.090Z,6.38
2023-05-05T05:34:52.084Z,7.25
2023-05-05T05:37:53.730Z,6.32
2023-05-05T05:40:55.959Z,5.68
2023-05-05T05:43:58.949Z,5.60
2023-05-05T05:47:01.559Z,5.70
2023-05-05T05:50:04.952Z,5.35
2023-05-05T05:53:07.215Z,5.82
2023-05-05T05:56:09.827Z,5.50
2023-05-05T05:59:11.899Z,5.50
2023-05-05T06:05:16.928Z,5.60
2023-05-05T06:08:20.359Z,5.95
2023-05-05T06:11:26.222Z,7.07
2023-05-05T06:14:27.891Z,5.80
2023-05-05T06:17:29.455Z,5.50
2023-05-05T06:20:31.517Z,5.60
2023-05-05T06:23:33.255Z,5.38
2023-05-05T06:26:38.876Z,5.30
2023-05-05T06:29:40.431Z,5.53
2023-05-05T06:32:42.252Z,6.00
2023-05-05T06:35:43.890Z,4.90
2023-05-05T06:38:45.472Z,5.28
2023-05-05T06:41:47.002Z,5.25
2023-05-05T06:44:48.523Z,4.82
2023-05-05T06:47:50.172Z,4.57
2023-05-05T06:50:51.943Z,4.70
2023-05-05T06:53:53.583Z,4.30
2023-05-05T06:56:55.414Z,6.15
2023-05-05T06:59:57.834Z,4.88
2023-05-05T07:02:59.415Z,4.93
2023-05-05T07:06:01.047Z,4.57
2023-05-05T07:09:03.485Z,3.92
2023-05-05T07:12:05.332Z,4.40
2023-05-05T07:15:23.241Z,4.50
2023-05-05T07:18:28.065Z,4.20
2023-05-05T07:21:29.641Z,3.80
2023-05-05T07:24:31.240Z,4.07
2023-05-05T07:27:32.995Z,3.83
2023-05-05T07:30:34.522Z,3.95
2023-05-05T07:33:36.209Z,4.35
2023-05-05T07:36:37.890Z,4.22
2023-05-05T07:39:39.483Z,4.60
2023-05-05T07:42:41.072Z,4.50
2023-05-05T07:45:42.698Z,4.53
2023-05-05T07:48:44.407Z,4.57
2023-05-05T07:51:46.809Z,4.47
2023-05-05T07:54:48.601Z,4.80
2023-05-05T07:57:50.187Z,5.10
2023-05-05T08:00:51.751Z,5.57
2023-05-05T08:03:53.317Z,4.68
2023-05-05T08:06:55.007Z,4.63
2023-05-05T08:09:57.203Z,4.80
2023-05-05T08:12:58.775Z,5.00
2023-05-05T08:16:00.518Z,5.30
2023-05-05T08:19:02.596Z,4.95
2023-05-05T08:22:04.146Z,4.67
2023-05-05T08:25:06.551Z,4.95
2023-05-05T08:28:08.367Z,5.07
2023-05-05T08:31:09.927Z,4.93
2023-05-05T08:34:11.683Z,5.50
2023-05-05T08:37:13.245Z,4.85
2023-05-05T08:40:14.944Z,4.80
2023-05-05T08:43:20.166Z,5.18
2023-05-05T08:46:22.646Z,5.07
2023-05-05T08:49:25.746Z,5.75
2023-05-05T08:52:29.516Z,5.40
2023-05-05T08:55:34.902Z,5.03
2023-05-05T08:58:37.517Z,5.40
2023-05-05T09:01:41.787Z,5.90
2023-05-05T09:04:43.586Z,5.57
2023-05-05T09:07:47.148Z,5.20
2023-05-05T09:10:51.558Z,5.30
2023-05-05T09:13:53.668Z,4.97
2023-05-05T09:16:55.775Z,4.13
2023-05-05T09:20:08.350Z,4.63
2023-05-05T09:23:19.050Z,4.22
2023-05-05T09:26:21.023Z,3.97
2023-05-05T09:29:23.068Z,3.67
2023-05-05T09:32:25.572Z,3.63
2023-05-05T09:35:27.151Z,3.70
2023-05-05T09:38:28.790Z,3.97
2023-05-05T09:41:38.175Z,3.72
2023-05-05T09:44:40.754Z,3.92
2023-05-05T09:50:44.551Z,3.58
2023-05-05T09:53:46.274Z,3.88
2023-05-05T09:56:47.847Z,3.17
2023-05-05T10:00:01.210Z,3.55
2023-05-05T10:03:03.253Z,3.15
2023-05-05T10:06:07.673Z,3.00
2023-05-05T10:09:09.455Z,2.42
2023-05-05T10:12:11.092Z,1.80
2023-05-05T10:15:14.769Z,1.88
2023-05-05T10:18:21.085Z,1.60
2023-05-05T10:21:24.514Z,1.50
2023-05-05T10:24:34.637Z,1.70
2023-05-05T10:27:44.661Z,1.52
2023-05-05T10:30:48.758Z,1.70
2023-05-05T10:34:00.412Z,1.90
2023-05-05T10:37:02.353Z,2.15
2023-05-05T10:40:04.739Z,2.35
2023-05-05T10:43:07.551Z,2.13
2023-05-05T10:46:09.769Z,2.17
2023-05-05T10:49:38.425Z,2.33
2023-05-05T10:52:42.982Z,1.98
2023-05-05T10:55:52.410Z,2.05
2023-05-05T10:59:00.164Z,2.03
2023-05-05T11:02:21.297Z,1.90
2023-05-05T11:05:23.278Z,1.90
2023-05-05T11:08:26.429Z,1.70
2023-05-05T11:12:03.818Z,1.92
2023-05-05T11:15:23.967Z,1.65
2023-05-05T11:18:37.023Z,1.80
2023-05-05T11:22:01.892Z,2.00
2023-05-05T11:25:45.283Z,1.60
2023-05-05T11:28:57.675Z,1.55
2023-05-05T11:32:13.147Z,1.60
2023-05-05T11:35:15.512Z,1.33
2023-05-05T11:38:19.790Z,1.60
2023-05-05T11:41:33.356Z,1.50
2023-05-05T11:44:36.004Z,1.60
2023-05-05T11:47:37.870Z,1.63
2023-05-05T11:50:40.696Z,1.67
2023-05-05T11:57:07.637Z,1.30
2023-05-05T12:00:09.935Z,1.30
2023-05-05T12:03:12.488Z,1.17
2023-05-05T12:06:14.141Z,1.20
2023-05-05T12:09:17.586Z,1.10
2023-05-05T12:12:20.131Z,1.20
2023-05-05T12:15:29.313Z,1.10
2023-05-05T12:18:30.891Z,1.00
2023-05-05T12:21:32.877Z,1.02
2023-05-05T12:24:34.692Z,1.02
2023-05-05T12:27:36.986Z,1.00
2023-05-05T12:30:38.679Z,0.90
2023-05-05T12:33:41.326Z,0.70
2023-05-05T12:39:45.301Z,0.83
2023-05-05T12:42:47.117Z,1.05
2023-05-05T12:45:49.411Z,0.87
2023-05-05T12:49:20.074Z,1.10
2023-05-05T12:52:21.761Z,1.05
2023-05-05T12:55:37.240Z,0.83
2023-05-05T12:58:48.619Z,0.88
2023-05-05T13:01:52.127Z,0.90
2023-05-05T13:04:54.467Z,1.25
2023-05-05T13:07:56.295Z,1.08
2023-05-05T13:11:00.457Z,2.10
2023-05-05T13:14:02.051Z,2.40
2023-05-05T13:17:04.380Z,2.73
2023-05-05T13:20:08.045Z,2.67
2023-05-05T13:23:09.624Z,2.80
2023-05-05T13:26:14.310Z,2.90
2023-05-05T13:29:16.579Z,2.50
2023-05-05T13:32:18.151Z,2.63
2023-05-05T13:35:19.687Z,2.92
2023-05-05T13:38:21.224Z,2.20
2023-05-05T13:41:22.793Z,2.10
2023-05-05T13:44:24.346Z,2.22
2023-05-05T13:47:26.055Z,2.33
2023-05-05T13:50:27.637Z,1.90
2023-05-05T13:53:29.188Z,2.00
2023-05-05T13:56:30.944Z,1.90
2023-05-05T13:59:32.572Z,1.88
2023-05-05T14:02:34.189Z,2.00
2023-05-05T14:05:37.391Z,1.70
2023-05-05T14:08:38.934Z,1.58
2023-05-05T14:11:41.084Z,1.70
2023-05-05T14:14:42.757Z,1.88
2023-05-05T14:17:44.642Z,1.75
2023-05-05T14:20:46.326Z,1.83
2023-05-05T14:23:48.239Z,1.80
2023-05-05T14:26:49.800Z,1.63
2023-05-05T14:29:51.329Z,1.30
2023-05-05T14:32:52.962Z,1.45
2023-05-05T14:35:55.459Z,1.45
2023-05-05T14:38:57.032Z,1.17
2023-05-05T14:41:58.712Z,1.25
2023-05-05T14:45:00.372Z,1.27
2023-05-05T14:48:02.463Z,1.45
2023-05-05T14:51:04.710Z,1.30
2023-05-05T14:54:14.192Z,1.23
2023-05-05T14:57:22.153Z,1.38
2023-05-05T15:00:23.919Z,1.10
2023-05-05T15:03:25.649Z,1.20
2023-05-05T15:06:28.064Z,1.30
2023-05-05T15:09:29.633Z,1.10
2023-05-05T15:12:31.258Z,1.27
2023-05-05T15:15:32.832Z,1.20
2023-05-05T15:18:34.486Z,1.38
2023-05-05T15:21:36.051Z,1.30
2023-05-05T15:24:37.644Z,1.20
2023-05-05T15:27:39.794Z,1.10
2023-05-05T15:30:41.473Z,1.20
2023-05-05T15:33:44.836Z,1.40
2023-05-05T15:36:46.401Z,1.20
2023-05-05T15:39:47.952Z,1.33
2023-05-05T15:42:52.635Z,1.40
2023-05-05T15:45:54.459Z,1.40
2023-05-05T15:48:55.968Z,1.15
2023-05-05T15:51:57.997Z,1.45
2023-05-05T15:54:59.566Z,1.40
2023-05-05T15:58:01.217Z,1.48
2023-05-05T16:01:02.861Z,1.45
2023-05-05T16:04:04.674Z,1.38
2023-05-05T16:07:06.217Z,1.42
2023-05-05T16:10:08.860Z,1.40
2023-05-05T16:13:10.476Z,1.30
2023-05-05T16:16:12.058Z,1.42
2023-05-05T16:19:13.618Z,1.40
2023-05-05T16:22:15.417Z,1.88
2023-05-05T16:25:18.339Z,1.40
